sensor_id;sensor_type;location;lat;lon;timestamp;temperature;humidity
60027;DHT22;45891;53.006;6.512;2024-01-15T00:01:56;1.60;99.90
60027;DHT22;45891;53.006;6.512;2024-01-15T00:04:21;1.60;99.90
60027;DHT22;45891;53.006;6.512;2024-01-15T00:06:48;1.60;99.90
60027;DHT22;45891;53.006;6.512;2024-01-15T00:09:14;1.70;99.90
60027;DHT22;45891;53.006;6.512;2024-01-15T00:11:41;1.70;99.90
60027;DHT22;45891;53.006;6.512;2024-01-15T00:14:08;1.70;99.90
60027;DHT22;45891;53.006;6.512;2024-01-15T00:16:34;1.70;99.90
60027;DHT22;45891;53.006;6.512;2024-01-15T00:19:00;1.70;99.90
60027;DHT22;45891;53.006;6.512;2024-01-15T00:21:26;1.80;99.90
60027;DHT22;45891;53.006;6.512;2024-01-15T00:23:53;1.90;99.90
60027;DHT22;45891;53.006;6.512;2024-01-15T00:26:19;1.80;99.90
60027;DHT22;45891;53.006;6.512;2024-01-15T00:28:45;1.80;99.90
60027;DHT22;45891;53.006;6.512;2024-01-15T00:31:10;1.80;99.90
60027;DHT22;45891;53.006;6.512;2024-01-15T00:33:36;1.90;99.90
60027;DHT22;45891;53.006;6.512;2024-01-15T00:36:05;1.90;99.90
60027;DHT22;45891;53.006;6.512;2024-01-15T00:38:31;2.00;99.90
60027;DHT22;45891;53.006;6.512;2024-01-15T00:40:57;2.10;99.90
60027;DHT22;45891;53.006;6.512;2024-01-15T00:43:23;2.20;99.90
60027;DHT22;45891;53.006;6.512;2024-01-15T00:45:49;2.30;99.90
60027;DHT22;45891;53.006;6.512;2024-01-15T00:48:15;2.30;99.90
60027;DHT22;45891;53.006;6.512;2024-01-15T00:50:41;2.40;99.90
60027;DHT22;45891;53.006;6.512;2024-01-15T00:53:07;2.50;99.90
60027;DHT22;45891;53.006;6.512;2024-01-15T00:55:32;2.50;99.90
60027;DHT22;45891;53.006;6.512;2024-01-15T00:57:58;2.50;99.90
60027;DHT22;45891;53.006;6.512;2024-01-15T01:00:24;2.40;99.90
60027;DHT22;45891;53.006;6.512;2024-01-15T01:02:50;2.40;99.90
60027;DHT22;45891;53.006;6.512;2024-01-15T01:05:16;2.30;99.90
60027;DHT22;45891;53.006;6.512;2024-01-15T01:07:42;2.30;99.90
60027;DHT22;45891;53.006;6.512;2024-01-15T01:10:08;2.40;99.90
60027;DHT22;45891;53.006;6.512;2024-01-15T01:12:34;2.40;99.90
60027;DHT22;45891;53.006;6.512;2024-01-15T01:15:00;2.50;99.90
60027;DHT22;45891;53.006;6.512;2024-01-15T01:17:26;2.50;99.90
60027;DHT22;45891;53.006;6.512;2024-01-15T01:19:52;2.50;99.90
60027;DHT22;45891;53.006;6.512;2024-01-15T01:22:17;2.50;99.90
60027;DHT22;45891;53.006;6.512;2024-01-15T01:24:43;2.40;99.90
60027;DHT22;45891;53.006;6.512;2024-01-15T01:27:09;2.40;99.90
60027;DHT22;45891;53.006;6.512;2024-01-15T01:29:35;2.30;99.90
60027;DHT22;45891;53.006;6.512;2024-01-15T01:32:01;2.20;99.90
60027;DHT22;45891;53.006;6.512;2024-01-15T01:34:27;2.20;99.90
60027;DHT22;45891;53.006;6.512;2024-01-15T01:36:53;2.10;99.90
60027;DHT22;45891;53.006;6.512;2024-01-15T01:39:19;2.20;99.90
60027;DHT22;45891;53.006;6.512;2024-01-15T01:41:45;2.20;99.90
60027;DHT22;45891;53.006;6.512;2024-01-15T01:44:11;2.20;99.90
60027;DHT22;45891;53.006;6.512;2024-01-15T01:46:37;2.20;99.90
60027;DHT22;45891;53.006;6.512;2024-01-15T01:49:06;2.20;99.90
60027;DHT22;45891;53.006;6.512;2024-01-15T01:51:33;2.20;99.90
60027;DHT22;45891;53.006;6.512;2024-01-15T01:53:59;2.10;99.90
60027;DHT22;45891;53.006;6.512;2024-01-15T01:56:26;2.20;99.90
60027;DHT22;45891;53.006;6.512;2024-01-15T01:58:52;2.20;99.90
60027;DHT22;45891;53.006;6.512;2024-01-15T02:01:18;2.20;99.90
60027;DHT22;45891;53.006;6.512;2024-01-15T02:03:44;2.20;99.90
60027;DHT22;45891;53.006;6.512;2024-01-15T02:06:10;2.10;99.90
60027;DHT22;45891;53.006;6.512;2024-01-15T02:08:36;2.00;99.90
60027;DHT22;45891;53.006;6.512;2024-01-15T02:11:02;1.90;99.90
60027;DHT22;45891;53.006;6.512;2024-01-15T02:13:28;1.80;99.90
60027;DHT22;45891;53.006;6.512;2024-01-15T02:15:54;1.70;99.90
60027;DHT22;45891;53.006;6.512;2024-01-15T02:18:20;1.60;99.90
60027;DHT22;45891;53.006;6.512;2024-01-15T02:20:46;1.60;99.90
60027;DHT22;45891;53.006;6.512;2024-01-15T02:23:13;1.50;99.90
60027;DHT22;45891;53.006;6.512;2024-01-15T02:25:39;1.50;99.90
60027;DHT22;45891;53.006;6.512;2024-01-15T02:28:06;1.50;99.90
60027;DHT22;45891;53.006;6.512;2024-01-15T02:30:34;1.50;99.90
60027;DHT22;45891;53.006;6.512;2024-01-15T02:33:02;1.50;99.90
60027;DHT22;45891;53.006;6.512;2024-01-15T02:35:28;1.50;99.90
60027;DHT22;45891;53.006;6.512;2024-01-15T02:37:54;1.60;99.90
60027;DHT22;45891;53.006;6.512;2024-01-15T02:40:20;1.70;99.90
60027;DHT22;45891;53.006;6.512;2024-01-15T02:42:46;1.70;99.90
60027;DHT22;45891;53.006;6.512;2024-01-15T02:45:12;1.70;99.90
60027;DHT22;45891;53.006;6.512;2024-01-15T02:47:37;1.70;99.90
60027;DHT22;45891;53.006;6.512;2024-01-15T02:50:03;1.80;99.90
60027;DHT22;45891;53.006;6.512;2024-01-15T02:52:30;1.80;99.90
60027;DHT22;45891;53.006;6.512;2024-01-15T02:54:55;1.90;99.90
60027;DHT22;45891;53.006;6.512;2024-01-15T02:57:21;1.80;99.90
60027;DHT22;45891;53.006;6.512;2024-01-15T02:59:47;1.80;99.90
60027;DHT22;45891;53.006;6.512;2024-01-15T03:02:13;1.90;99.90
60027;DHT22;45891;53.006;6.512;2024-01-15T03:04:45;1.80;99.90
60027;DHT22;45891;53.006;6.512;2024-01-15T03:07:11;1.90;99.90
60027;DHT22;45891;53.006;6.512;2024-01-15T03:09:37;1.90;99.90
60027;DHT22;45891;53.006;6.512;2024-01-15T03:12:03;1.90;99.90
60027;DHT22;45891;53.006;6.512;2024-01-15T03:14:29;1.90;99.90
60027;DHT22;45891;53.006;6.512;2024-01-15T03:16:55;1.90;99.90
60027;DHT22;45891;53.006;6.512;2024-01-15T03:19:21;1.90;99.90
60027;DHT22;45891;53.006;6.512;2024-01-15T03:21:47;1.90;99.90
60027;DHT22;45891;53.006;6.512;2024-01-15T03:24:13;1.90;99.90
60027;DHT22;45891;53.006;6.512;2024-01-15T03:26:38;1.80;99.90
60027;DHT22;45891;53.006;6.512;2024-01-15T03:29:04;1.80;99.90
60027;DHT22;45891;53.006;6.512;2024-01-15T03:31:30;1.80;99.90
60027;DHT22;45891;53.006;6.512;2024-01-15T03:33:56;1.90;99.90
60027;DHT22;45891;53.006;6.512;2024-01-15T03:36:22;1.80;99.90
60027;DHT22;45891;53.006;6.512;2024-01-15T03:38:48;1.80;99.90
60027;DHT22;45891;53.006;6.512;2024-01-15T03:41:14;1.90;99.90
60027;DHT22;45891;53.006;6.512;2024-01-15T03:43:40;2.00;99.90
60027;DHT22;45891;53.006;6.512;2024-01-15T03:46:06;2.00;99.90
60027;DHT22;45891;53.006;6.512;2024-01-15T03:48:32;2.10;99.90
60027;DHT22;45891;53.006;6.512;2024-01-15T03:50:58;2.20;99.90
60027;DHT22;45891;53.006;6.512;2024-01-15T03:53:24;2.20;99.90
60027;DHT22;45891;53.006;6.512;2024-01-15T03:55:50;2.20;99.90
60027;DHT22;45891;53.006;6.512;2024-01-15T03:58:16;2.20;99.90
60027;DHT22;45891;53.006;6.512;2024-01-15T04:00:42;2.20;99.90
60027;DHT22;45891;53.006;6.512;2024-01-15T04:03:08;2.30;99.90
60027;DHT22;45891;53.006;6.512;2024-01-15T04:05:34;2.40;99.90
60027;DHT22;45891;53.006;6.512;2024-01-15T04:08:00;2.40;99.90
60027;DHT22;45891;53.006;6.512;2024-01-15T04:10:26;2.50;99.90
60027;DHT22;45891;53.006;6.512;2024-01-15T04:12:52;2.50;99.90
60027;DHT22;45891;53.006;6.512;2024-01-15T04:15:18;2.50;99.90
60027;DHT22;45891;53.006;6.512;2024-01-15T04:17:44;2.50;99.90
60027;DHT22;45891;53.006;6.512;2024-01-15T04:20:10;2.40;99.90
60027;DHT22;45891;53.006;6.512;2024-01-15T04:22:36;2.40;99.90
60027;DHT22;45891;53.006;6.512;2024-01-15T04:25:03;2.30;99.90
60027;DHT22;45891;53.006;6.512;2024-01-15T04:27:29;2.20;99.90
60027;DHT22;45891;53.006;6.512;2024-01-15T04:29:55;2.20;99.90
60027;DHT22;45891;53.006;6.512;2024-01-15T04:32:21;2.20;99.90
60027;DHT22;45891;53.006;6.512;2024-01-15T04:34:46;2.20;99.90
60027;DHT22;45891;53.006;6.512;2024-01-15T04:37:15;2.30;99.90
60027;DHT22;45891;53.006;6.512;2024-01-15T04:39:41;2.20;99.90
60027;DHT22;45891;53.006;6.512;2024-01-15T04:42:07;2.10;99.90
60027;DHT22;45891;53.006;6.512;2024-01-15T04:44:33;2.00;99.90
60027;DHT22;45891;53.006;6.512;2024-01-15T04:46:59;2.00;99.90
60027;DHT22;45891;53.006;6.512;2024-01-15T04:49:25;2.00;99.90
60027;DHT22;45891;53.006;6.512;2024-01-15T04:51:55;2.00;99.90
60027;DHT22;45891;53.006;6.512;2024-01-15T04:54:21;1.90;99.90
60027;DHT22;45891;53.006;6.512;2024-01-15T04:56:46;1.90;99.90
60027;DHT22;45891;53.006;6.512;2024-01-15T04:59:13;1.80;99.90
60027;DHT22;45891;53.006;6.512;2024-01-15T05:01:40;1.80;99.90
60027;DHT22;45891;53.006;6.512;2024-01-15T05:04:06;1.80;99.90
60027;DHT22;45891;53.006;6.512;2024-01-15T05:06:32;1.80;99.90
60027;DHT22;45891;53.006;6.512;2024-01-15T05:08:57;1.70;99.90
60027;DHT22;45891;53.006;6.512;2024-01-15T05:11:23;1.70;99.90
60027;DHT22;45891;53.006;6.512;2024-01-15T05:13:49;1.70;99.90
60027;DHT22;45891;53.006;6.512;2024-01-15T05:16:15;1.60;99.90
60027;DHT22;45891;53.006;6.512;2024-01-15T05:18:41;1.60;99.90
60027;DHT22;45891;53.006;6.512;2024-01-15T05:21:09;1.60;99.90
60027;DHT22;45891;53.006;6.512;2024-01-15T05:23:34;1.70;99.90
60027;DHT22;45891;53.006;6.512;2024-01-15T05:26:00;1.70;99.90
60027;DHT22;45891;53.006;6.512;2024-01-15T05:28:26;1.60;99.90
60027;DHT22;45891;53.006;6.512;2024-01-15T05:30:52;1.70;99.90
60027;DHT22;45891;53.006;6.512;2024-01-15T05:33:19;1.70;99.90
60027;DHT22;45891;53.006;6.512;2024-01-15T05:35:45;1.80;99.90
60027;DHT22;45891;53.006;6.512;2024-01-15T05:38:10;1.80;99.90
60027;DHT22;45891;53.006;6.512;2024-01-15T05:40:36;1.80;99.90
60027;DHT22;45891;53.006;6.512;2024-01-15T05:43:03;1.80;99.90
60027;DHT22;45891;53.006;6.512;2024-01-15T05:45:29;1.70;99.90
60027;DHT22;45891;53.006;6.512;2024-01-15T05:47:55;1.60;99.90
60027;DHT22;45891;53.006;6.512;2024-01-15T05:50:21;1.50;99.90
60027;DHT22;45891;53.006;6.512;2024-01-15T05:52:47;1.40;99.90
60027;DHT22;45891;53.006;6.512;2024-01-15T05:55:13;1.40;99.90
60027;DHT22;45891;53.006;6.512;2024-01-15T05:57:39;1.30;99.90
60027;DHT22;45891;53.006;6.512;2024-01-15T06:00:05;1.30;99.90
60027;DHT22;45891;53.006;6.512;2024-01-15T06:02:32;1.30;99.90
60027;DHT22;45891;53.006;6.512;2024-01-15T06:04:58;1.20;99.90
60027;DHT22;45891;53.006;6.512;2024-01-15T06:07:23;1.20;99.90
60027;DHT22;45891;53.006;6.512;2024-01-15T06:09:49;1.10;99.90
60027;DHT22;45891;53.006;6.512;2024-01-15T06:12:16;1.10;99.90
60027;DHT22;45891;53.006;6.512;2024-01-15T06:14:41;1.20;99.90
60027;DHT22;45891;53.006;6.512;2024-01-15T06:17:08;1.20;99.90
60027;DHT22;45891;53.006;6.512;2024-01-15T06:19:34;1.20;99.90
60027;DHT22;45891;53.006;6.512;2024-01-15T06:22:00;1.30;99.90
60027;DHT22;45891;53.006;6.512;2024-01-15T06:24:26;1.30;99.90
60027;DHT22;45891;53.006;6.512;2024-01-15T06:26:51;1.30;99.90
60027;DHT22;45891;53.006;6.512;2024-01-15T06:29:18;1.30;99.90
60027;DHT22;45891;53.006;6.512;2024-01-15T06:31:44;1.30;99.90
60027;DHT22;45891;53.006;6.512;2024-01-15T06:34:09;1.30;99.90
60027;DHT22;45891;53.006;6.512;2024-01-15T06:36:35;1.20;99.90
60027;DHT22;45891;53.006;6.512;2024-01-15T06:39:01;1.20;99.90
60027;DHT22;45891;53.006;6.512;2024-01-15T06:41:28;1.20;99.90
60027;DHT22;45891;53.006;6.512;2024-01-15T06:43:54;1.20;99.90
60027;DHT22;45891;53.006;6.512;2024-01-15T06:46:21;1.30;99.90
60027;DHT22;45891;53.006;6.512;2024-01-15T06:48:47;1.30;99.90
60027;DHT22;45891;53.006;6.512;2024-01-15T06:51:13;1.40;99.90
60027;DHT22;45891;53.006;6.512;2024-01-15T06:53:39;1.40;99.90
60027;DHT22;45891;53.006;6.512;2024-01-15T06:56:05;1.30;99.90
60027;DHT22;45891;53.006;6.512;2024-01-15T06:58:31;1.30;99.90
60027;DHT22;45891;53.006;6.512;2024-01-15T07:00:57;1.20;99.90
60027;DHT22;45891;53.006;6.512;2024-01-15T07:03:23;1.20;99.90
60027;DHT22;45891;53.006;6.512;2024-01-15T07:05:49;1.20;99.90
60027;DHT22;45891;53.006;6.512;2024-01-15T07:08:15;1.10;99.90
60027;DHT22;45891;53.006;6.512;2024-01-15T07:10:41;1.20;99.90
60027;DHT22;45891;53.006;6.512;2024-01-15T07:13:07;1.10;99.90
60027;DHT22;45891;53.006;6.512;2024-01-15T07:15:33;1.10;99.90
60027;DHT22;45891;53.006;6.512;2024-01-15T07:17:59;1.10;99.90
60027;DHT22;45891;53.006;6.512;2024-01-15T07:20:25;1.10;99.90
60027;DHT22;45891;53.006;6.512;2024-01-15T07:22:50;1.10;99.90
60027;DHT22;45891;53.006;6.512;2024-01-15T07:25:16;1.10;99.90
60027;DHT22;45891;53.006;6.512;2024-01-15T07:27:42;1.10;99.90
60027;DHT22;45891;53.006;6.512;2024-01-15T07:30:11;1.00;99.90
60027;DHT22;45891;53.006;6.512;2024-01-15T07:32:37;1.00;99.90
60027;DHT22;45891;53.006;6.512;2024-01-15T07:35:03;1.00;99.90
60027;DHT22;45891;53.006;6.512;2024-01-15T07:37:29;1.00;99.90
60027;DHT22;45891;53.006;6.512;2024-01-15T07:39:55;1.00;99.90
60027;DHT22;45891;53.006;6.512;2024-01-15T07:42:21;1.00;99.90
60027;DHT22;45891;53.006;6.512;2024-01-15T07:44:47;1.00;99.90
60027;DHT22;45891;53.006;6.512;2024-01-15T07:47:13;1.00;99.90
60027;DHT22;45891;53.006;6.512;2024-01-15T07:49:39;1.00;99.90
60027;DHT22;45891;53.006;6.512;2024-01-15T07:52:05;1.10;99.90
60027;DHT22;45891;53.006;6.512;2024-01-15T07:54:31;1.10;99.90
60027;DHT22;45891;53.006;6.512;2024-01-15T07:57:00;1.20;99.90
60027;DHT22;45891;53.006;6.512;2024-01-15T07:59:28;1.20;99.90
60027;DHT22;45891;53.006;6.512;2024-01-15T08:01:54;1.20;99.90
60027;DHT22;45891;53.006;6.512;2024-01-15T08:04:20;1.20;99.90
60027;DHT22;45891;53.006;6.512;2024-01-15T08:06:46;1.30;99.90
60027;DHT22;45891;53.006;6.512;2024-01-15T08:09:12;1.30;99.90
60027;DHT22;45891;53.006;6.512;2024-01-15T08:11:41;1.30;99.90
60027;DHT22;45891;53.006;6.512;2024-01-15T08:14:08;1.30;99.90
60027;DHT22;45891;53.006;6.512;2024-01-15T08:16:34;1.40;99.90
60027;DHT22;45891;53.006;6.512;2024-01-15T08:19:00;1.40;99.90
60027;DHT22;45891;53.006;6.512;2024-01-15T08:21:26;1.40;99.90
60027;DHT22;45891;53.006;6.512;2024-01-15T08:24:01;1.40;99.90
60027;DHT22;45891;53.006;6.512;2024-01-15T08:26:28;1.40;99.90
60027;DHT22;45891;53.006;6.512;2024-01-15T08:28:54;1.40;99.90
60027;DHT22;45891;53.006;6.512;2024-01-15T08:31:20;1.40;99.90
60027;DHT22;45891;53.006;6.512;2024-01-15T08:33:46;1.40;99.90
60027;DHT22;45891;53.006;6.512;2024-01-15T08:36:12;1.40;99.90
60027;DHT22;45891;53.006;6.512;2024-01-15T08:38:38;1.40;99.90
60027;DHT22;45891;53.006;6.512;2024-01-15T08:41:04;1.40;99.90
60027;DHT22;45891;53.006;6.512;2024-01-15T08:43:30;1.40;99.90
60027;DHT22;45891;53.006;6.512;2024-01-15T08:45:59;1.40;99.90
60027;DHT22;45891;53.006;6.512;2024-01-15T08:48:24;1.40;99.90
60027;DHT22;45891;53.006;6.512;2024-01-15T08:50:53;1.40;99.90
60027;DHT22;45891;53.006;6.512;2024-01-15T08:53:19;1.40;99.90
60027;DHT22;45891;53.006;6.512;2024-01-15T08:55:45;1.50;99.90
60027;DHT22;45891;53.006;6.512;2024-01-15T08:58:11;1.60;99.90
60027;DHT22;45891;53.006;6.512;2024-01-15T09:00:37;1.70;99.90
60027;DHT22;45891;53.006;6.512;2024-01-15T09:03:03;1.80;99.90
60027;DHT22;45891;53.006;6.512;2024-01-15T09:05:29;1.90;99.90
60027;DHT22;45891;53.006;6.512;2024-01-15T09:07:55;2.10;99.90
60027;DHT22;45891;53.006;6.512;2024-01-15T09:10:21;2.10;99.90
60027;DHT22;45891;53.006;6.512;2024-01-15T09:12:47;2.00;99.90
60027;DHT22;45891;53.006;6.512;2024-01-15T09:15:14;1.90;99.90
60027;DHT22;45891;53.006;6.512;2024-01-15T09:17:40;1.90;99.90
60027;DHT22;45891;53.006;6.512;2024-01-15T09:20:07;1.80;99.90
60027;DHT22;45891;53.006;6.512;2024-01-15T09:22:33;1.80;99.90
60027;DHT22;45891;53.006;6.512;2024-01-15T09:24:58;1.80;99.90
60027;DHT22;45891;53.006;6.512;2024-01-15T09:27:25;1.80;99.90
60027;DHT22;45891;53.006;6.512;2024-01-15T09:29:54;1.80;99.90
60027;DHT22;45891;53.006;6.512;2024-01-15T09:32:20;1.90;99.90
60027;DHT22;45891;53.006;6.512;2024-01-15T09:34:46;1.90;99.90
60027;DHT22;45891;53.006;6.512;2024-01-15T09:37:12;1.90;99.90
60027;DHT22;45891;53.006;6.512;2024-01-15T09:39:40;2.00;99.90
60027;DHT22;45891;53.006;6.512;2024-01-15T09:42:06;2.00;99.90
60027;DHT22;45891;53.006;6.512;2024-01-15T09:44:32;2.20;99.90
60027;DHT22;45891;53.006;6.512;2024-01-15T09:46:58;2.30;99.90
60027;DHT22;45891;53.006;6.512;2024-01-15T09:49:24;2.40;99.90
60027;DHT22;45891;53.006;6.512;2024-01-15T09:51:51;2.40;99.90
60027;DHT22;45891;53.006;6.512;2024-01-15T09:54:17;2.40;99.90
60027;DHT22;45891;53.006;6.512;2024-01-15T09:56:46;2.30;99.90
60027;DHT22;45891;53.006;6.512;2024-01-15T09:59:16;2.20;99.90
60027;DHT22;45891;53.006;6.512;2024-01-15T10:01:42;2.30;99.90
60027;DHT22;45891;53.006;6.512;2024-01-15T10:04:10;2.30;99.90
60027;DHT22;45891;53.006;6.512;2024-01-15T10:06:36;2.20;99.90
60027;DHT22;45891;53.006;6.512;2024-01-15T10:09:03;2.30;99.90
60027;DHT22;45891;53.006;6.512;2024-01-15T10:11:29;2.30;99.90
60027;DHT22;45891;53.006;6.512;2024-01-15T10:13:55;2.40;99.90
60027;DHT22;45891;53.006;6.512;2024-01-15T10:16:23;2.40;99.90
60027;DHT22;45891;53.006;6.512;2024-01-15T10:18:49;2.40;99.90
60027;DHT22;45891;53.006;6.512;2024-01-15T10:21:15;2.40;99.90
60027;DHT22;45891;53.006;6.512;2024-01-15T10:23:41;2.40;99.90
60027;DHT22;45891;53.006;6.512;2024-01-15T10:26:07;2.50;99.90
60027;DHT22;45891;53.006;6.512;2024-01-15T10:28:33;2.60;99.90
60027;DHT22;45891;53.006;6.512;2024-01-15T10:31:00;2.80;99.90
60027;DHT22;45891;53.006;6.512;2024-01-15T10:33:26;2.90;99.90
60027;DHT22;45891;53.006;6.512;2024-01-15T10:35:56;2.90;99.90
60027;DHT22;45891;53.006;6.512;2024-01-15T10:38:22;2.80;99.90
60027;DHT22;45891;53.006;6.512;2024-01-15T10:40:51;2.80;99.90
60027;DHT22;45891;53.006;6.512;2024-01-15T10:43:17;2.70;99.90
60027;DHT22;45891;53.006;6.512;2024-01-15T10:45:47;2.60;99.90
60027;DHT22;45891;53.006;6.512;2024-01-15T10:48:13;2.60;99.90
60027;DHT22;45891;53.006;6.512;2024-01-15T10:50:39;2.60;99.90
60027;DHT22;45891;53.006;6.512;2024-01-15T10:53:06;2.50;99.90
60027;DHT22;45891;53.006;6.512;2024-01-15T10:55:33;2.50;99.90
60027;DHT22;45891;53.006;6.512;2024-01-15T10:57:59;2.40;99.90
60027;DHT22;45891;53.006;6.512;2024-01-15T11:00:25;2.30;99.90
60027;DHT22;45891;53.006;6.512;2024-01-15T11:02:51;2.20;99.90
60027;DHT22;45891;53.006;6.512;2024-01-15T11:05:21;2.10;99.90
60027;DHT22;45891;53.006;6.512;2024-01-15T11:07:50;2.10;99.90
60027;DHT22;45891;53.006;6.512;2024-01-15T11:13:00;2.20;99.90
60027;DHT22;45891;53.006;6.512;2024-01-15T11:15:27;2.30;99.90
60027;DHT22;45891;53.006;6.512;2024-01-15T11:17:58;2.40;99.90
60027;DHT22;45891;53.006;6.512;2024-01-15T11:20:25;2.30;99.90
60027;DHT22;45891;53.006;6.512;2024-01-15T11:22:51;2.30;99.90
60027;DHT22;45891;53.006;6.512;2024-01-15T11:25:20;2.30;99.90
60027;DHT22;45891;53.006;6.512;2024-01-15T11:27:47;2.30;99.90
60027;DHT22;45891;53.006;6.512;2024-01-15T11:30:21;2.30;99.90
60027;DHT22;45891;53.006;6.512;2024-01-15T11:32:50;2.40;99.90
60027;DHT22;45891;53.006;6.512;2024-01-15T11:35:16;2.40;99.90
60027;DHT22;45891;53.006;6.512;2024-01-15T11:37:56;2.30;99.90
60027;DHT22;45891;53.006;6.512;2024-01-15T11:42:58;2.30;99.90
60027;DHT22;45891;53.006;6.512;2024-01-15T11:45:24;2.20;99.90
60027;DHT22;45891;53.006;6.512;2024-01-15T11:50:35;2.10;99.90
60027;DHT22;45891;53.006;6.512;2024-01-15T11:53:04;2.20;99.90
60027;DHT22;45891;53.006;6.512;2024-01-15T11:55:34;2.20;99.90
60027;DHT22;45891;53.006;6.512;2024-01-15T11:58:04;2.10;99.90
60027;DHT22;45891;53.006;6.512;2024-01-15T12:00:33;1.90;99.90
60027;DHT22;45891;53.006;6.512;2024-01-15T12:02:59;1.80;99.90
60027;DHT22;45891;53.006;6.512;2024-01-15T12:05:25;1.60;99.90
60027;DHT22;45891;53.006;6.512;2024-01-15T12:07:51;1.40;99.90
60027;DHT22;45891;53.006;6.512;2024-01-15T12:10:20;1.40;99.90
60027;DHT22;45891;53.006;6.512;2024-01-15T12:12:58;1.30;99.90
60027;DHT22;45891;53.006;6.512;2024-01-15T12:15:28;1.30;99.90
60027;DHT22;45891;53.006;6.512;2024-01-15T12:17:54;1.40;99.90
60027;DHT22;45891;53.006;6.512;2024-01-15T12:20:21;1.40;99.90
60027;DHT22;45891;53.006;6.512;2024-01-15T12:22:47;1.40;99.90
60027;DHT22;45891;53.006;6.512;2024-01-15T12:25:16;1.50;99.90
60027;DHT22;45891;53.006;6.512;2024-01-15T12:27:41;1.50;99.90
60027;DHT22;45891;53.006;6.512;2024-01-15T12:30:10;1.50;99.90
60027;DHT22;45891;53.006;6.512;2024-01-15T12:32:36;1.60;99.90
60027;DHT22;45891;53.006;6.512;2024-01-15T12:35:02;1.60;99.90
60027;DHT22;45891;53.006;6.512;2024-01-15T12:37:29;1.60;99.90
60027;DHT22;45891;53.006;6.512;2024-01-15T12:39:55;1.70;99.90
60027;DHT22;45891;53.006;6.512;2024-01-15T12:42:21;1.70;99.90
60027;DHT22;45891;53.006;6.512;2024-01-15T12:44:47;1.80;99.90
60027;DHT22;45891;53.006;6.512;2024-01-15T12:47:12;1.80;99.90
60027;DHT22;45891;53.006;6.512;2024-01-15T12:49:40;1.90;99.90
60027;DHT22;45891;53.006;6.512;2024-01-15T12:52:08;2.00;99.90
60027;DHT22;45891;53.006;6.512;2024-01-15T12:54:34;2.70;99.90
60027;DHT22;45891;53.006;6.512;2024-01-15T12:57:00;4.10;99.90
60027;DHT22;45891;53.006;6.512;2024-01-15T12:59:26;3.80;99.90
60027;DHT22;45891;53.006;6.512;2024-01-15T13:01:52;3.20;99.90
60027;DHT22;45891;53.006;6.512;2024-01-15T13:04:24;2.90;99.90
60027;DHT22;45891;53.006;6.512;2024-01-15T13:06:50;2.70;99.90
60027;DHT22;45891;53.006;6.512;2024-01-15T13:09:17;2.50;99.90
60027;DHT22;45891;53.006;6.512;2024-01-15T13:11:46;2.40;99.90
60027;DHT22;45891;53.006;6.512;2024-01-15T13:14:12;2.50;99.90
60027;DHT22;45891;53.006;6.512;2024-01-15T13:16:41;3.20;99.90
60027;DHT22;45891;53.006;6.512;2024-01-15T13:19:08;3.40;99.90
60027;DHT22;45891;53.006;6.512;2024-01-15T13:21:34;2.90;99.90
60027;DHT22;45891;53.006;6.512;2024-01-15T13:24:00;2.50;99.90
60027;DHT22;45891;53.006;6.512;2024-01-15T13:26:27;2.00;99.90
60027;DHT22;45891;53.006;6.512;2024-01-15T13:28:53;1.60;99.90
60027;DHT22;45891;53.006;6.512;2024-01-15T13:31:19;1.60;99.90
60027;DHT22;45891;53.006;6.512;2024-01-15T13:33:46;2.20;99.90
60027;DHT22;45891;53.006;6.512;2024-01-15T13:36:12;2.40;99.90
60027;DHT22;45891;53.006;6.512;2024-01-15T13:38:38;2.40;99.90
60027;DHT22;45891;53.006;6.512;2024-01-15T13:41:04;2.00;99.90
60027;DHT22;45891;53.006;6.512;2024-01-15T13:43:31;1.80;99.90
60027;DHT22;45891;53.006;6.512;2024-01-15T13:45:57;1.80;99.90
60027;DHT22;45891;53.006;6.512;2024-01-15T13:48:23;1.70;99.90
60027;DHT22;45891;53.006;6.512;2024-01-15T13:50:49;1.70;99.90
60027;DHT22;45891;53.006;6.512;2024-01-15T13:53:16;2.60;99.90
60027;DHT22;45891;53.006;6.512;2024-01-15T13:55:42;3.60;99.90
60027;DHT22;45891;53.006;6.512;2024-01-15T13:58:08;4.70;99.90
60027;DHT22;45891;53.006;6.512;2024-01-15T14:00:34;4.10;99.90
60027;DHT22;45891;53.006;6.512;2024-01-15T14:03:00;3.90;99.90
60027;DHT22;45891;53.006;6.512;2024-01-15T14:05:25;3.00;99.90
60027;DHT22;45891;53.006;6.512;2024-01-15T14:07:52;2.80;99.90
60027;DHT22;45891;53.006;6.512;2024-01-15T14:10:17;2.80;99.90
60027;DHT22;45891;53.006;6.512;2024-01-15T14:12:43;2.60;99.90
60027;DHT22;45891;53.006;6.512;2024-01-15T14:15:09;2.40;99.90
60027;DHT22;45891;53.006;6.512;2024-01-15T14:17:35;2.30;99.90
60027;DHT22;45891;53.006;6.512;2024-01-15T14:20:01;2.30;99.90
60027;DHT22;45891;53.006;6.512;2024-01-15T14:22:27;2.20;99.90
60027;DHT22;45891;53.006;6.512;2024-01-15T14:24:53;2.20;99.90
60027;DHT22;45891;53.006;6.512;2024-01-15T14:27:19;2.00;99.90
60027;DHT22;45891;53.006;6.512;2024-01-15T14:29:45;2.00;99.90
60027;DHT22;45891;53.006;6.512;2024-01-15T14:32:11;2.00;99.90
60027;DHT22;45891;53.006;6.512;2024-01-15T14:34:37;2.60;99.90
60027;DHT22;45891;53.006;6.512;2024-01-15T14:37:03;3.60;99.90
60027;DHT22;45891;53.006;6.512;2024-01-15T14:39:29;4.30;99.90
60027;DHT22;45891;53.006;6.512;2024-01-15T14:41:57;4.50;99.90
60027;DHT22;45891;53.006;6.512;2024-01-15T14:44:23;4.80;99.90
60027;DHT22;45891;53.006;6.512;2024-01-15T14:46:49;4.70;99.90
60027;DHT22;45891;53.006;6.512;2024-01-15T14:49:15;4.80;99.90
60027;DHT22;45891;53.006;6.512;2024-01-15T14:51:44;4.80;99.90
60027;DHT22;45891;53.006;6.512;2024-01-15T14:54:10;4.50;99.90
60027;DHT22;45891;53.006;6.512;2024-01-15T14:56:36;3.80;99.90
60027;DHT22;45891;53.006;6.512;2024-01-15T14:59:02;3.20;99.90
60027;DHT22;45891;53.006;6.512;2024-01-15T15:01:28;2.80;99.90
60027;DHT22;45891;53.006;6.512;2024-01-15T15:03:54;2.60;99.90
60027;DHT22;45891;53.006;6.512;2024-01-15T15:06:20;2.50;99.90
60027;DHT22;45891;53.006;6.512;2024-01-15T15:08:46;2.40;99.90
60027;DHT22;45891;53.006;6.512;2024-01-15T15:11:12;2.30;99.90
60027;DHT22;45891;53.006;6.512;2024-01-15T15:13:39;2.20;99.90
60027;DHT22;45891;53.006;6.512;2024-01-15T15:16:05;2.00;99.90
60027;DHT22;45891;53.006;6.512;2024-01-15T15:18:31;1.80;99.90
60027;DHT22;45891;53.006;6.512;2024-01-15T15:20:57;1.40;99.90
60027;DHT22;45891;53.006;6.512;2024-01-15T15:23:23;1.20;99.90
60027;DHT22;45891;53.006;6.512;2024-01-15T15:25:49;1.20;99.90
60027;DHT22;45891;53.006;6.512;2024-01-15T15:28:15;1.10;99.90
60027;DHT22;45891;53.006;6.512;2024-01-15T15:30:42;1.10;99.90
60027;DHT22;45891;53.006;6.512;2024-01-15T15:33:08;1.10;99.90
60027;DHT22;45891;53.006;6.512;2024-01-15T15:35:33;1.10;99.90
60027;DHT22;45891;53.006;6.512;2024-01-15T15:37:59;1.10;99.90
60027;DHT22;45891;53.006;6.512;2024-01-15T15:40:25;1.10;99.90
60027;DHT22;45891;53.006;6.512;2024-01-15T15:42:51;1.10;99.90
60027;DHT22;45891;53.006;6.512;2024-01-15T15:45:17;1.20;99.90
60027;DHT22;45891;53.006;6.512;2024-01-15T15:47:43;1.20;99.90